sensor_id;sensor_type;location;lat;lon;timestamp;P1;durP1;ratioP1;P2;durP2;ratioP2
60582;SDS011;46415;47.536;19.066;2023-04-30T00:01:17;10.40;;;9.27;;
60582;SDS011;46415;47.536;19.066;2023-04-30T00:04:21;10.63;;;9.18;;
60582;SDS011;46415;47.536;19.066;2023-04-30T00:07:24;10.73;;;9.48;;
60582;SDS011;46415;47.536;19.066;2023-04-30T00:10:28;12.85;;;9.60;;
60582;SDS011;46415;47.536;19.066;2023-04-30T00:13:32;15.07;;;10.40;;
60582;SDS011;46415;47.536;19.066;2023-04-30T00:16:34;13.13;;;9.48;;
60582;SDS011;46415;47.536;19.066;2023-04-30T00:19:37;11.57;;;10.35;;
60582;SDS011;46415;47.536;19.066;2023-04-30T00:22:40;10.90;;;8.60;;
60582;SDS011;46415;47.536;19.066;2023-04-30T00:25:43;11.98;;;9.70;;
60582;SDS011;46415;47.536;19.066;2023-04-30T00:28:46;11.20;;;8.15;;
60582;SDS011;46415;47.536;19.066;2023-04-30T00:31:49;13.25;;;9.50;;
60582;SDS011;46415;47.536;19.066;2023-04-30T00:34:53;13.20;;;10.82;;
60582;SDS011;46415;47.536;19.066;2023-04-30T00:37:55;13.45;;;9.20;;
60582;SDS011;46415;47.536;19.066;2023-04-30T00:40:58;12.02;;;9.43;;
60582;SDS011;46415;47.536;19.066;2023-04-30T00:44:01;14.02;;;9.55;;
60582;SDS011;46415;47.536;19.066;2023-04-30T00:47:04;12.52;;;10.48;;
60582;SDS011;46415;47.536;19.066;2023-04-30T00:50:07;18.98;;;7.43;;
60582;SDS011;46415;47.536;19.066;2023-04-30T00:53:11;12.57;;;9.55;;
60582;SDS011;46415;47.536;19.066;2023-04-30T00:56:15;12.30;;;9.60;;
60582;SDS011;46415;47.536;19.066;2023-04-30T00:59:18;10.27;;;7.82;;
60582;SDS011;46415;47.536;19.066;2023-04-30T01:02:21;11.30;;;9.18;;
60582;SDS011;46415;47.536;19.066;2023-04-30T01:05:25;14.20;;;10.82;;
60582;SDS011;46415;47.536;19.066;2023-04-30T01:08:28;11.48;;;7.57;;
60582;SDS011;46415;47.536;19.066;2023-04-30T01:14:56;12.00;;;9.55;;
60582;SDS011;46415;47.536;19.066;2023-04-30T01:21:26;11.82;;;7.68;;
60582;SDS011;46415;47.536;19.066;2023-04-30T01:28:15;12.15;;;9.77;;
60582;SDS011;46415;47.536;19.066;2023-04-30T01:31:22;14.15;;;9.77;;
60582;SDS011;46415;47.536;19.066;2023-04-30T01:34:25;12.32;;;10.10;;
60582;SDS011;46415;47.536;19.066;2023-04-30T01:53:40;12.48;;;10.05;;
60582;SDS011;46415;47.536;19.066;2023-04-30T01:56:45;12.77;;;9.10;;
60582;SDS011;46415;47.536;19.066;2023-04-30T02:00:06;10.82;;;9.38;;
60582;SDS011;46415;47.536;19.066;2023-04-30T02:03:14;10.27;;;8.30;;
60582;SDS011;46415;47.536;19.066;2023-04-30T02:06:17;12.88;;;9.43;;
60582;SDS011;46415;47.536;19.066;2023-04-30T02:09:21;12.07;;;9.10;;
60582;SDS011;46415;47.536;19.066;2023-04-30T02:12:26;14.15;;;9.60;;
60582;SDS011;46415;47.536;19.066;2023-04-30T02:15:31;13.35;;;10.27;;
60582;SDS011;46415;47.536;19.066;2023-04-30T02:18:34;13.07;;;9.57;;
60582;SDS011;46415;47.536;19.066;2023-04-30T02:21:37;10.07;;;7.85;;
60582;SDS011;46415;47.536;19.066;2023-04-30T02:24:40;11.60;;;9.70;;
60582;SDS011;46415;47.536;19.066;2023-04-30T02:27:45;12.15;;;9.68;;
60582;SDS011;46415;47.536;19.066;2023-04-30T02:30:48;10.48;;;8.05;;
60582;SDS011;46415;47.536;19.066;2023-04-30T02:33:51;11.10;;;9.52;;
60582;SDS011;46415;47.536;19.066;2023-04-30T02:36:54;13.00;;;9.60;;
60582;SDS011;46415;47.536;19.066;2023-04-30T02:39:57;11.73;;;9.52;;
60582;SDS011;46415;47.536;19.066;2023-04-30T02:43:00;11.63;;;8.88;;
60582;SDS011;46415;47.536;19.066;2023-04-30T02:46:02;11.55;;;9.32;;
60582;SDS011;46415;47.536;19.066;2023-04-30T02:49:06;11.07;;;8.10;;
60582;SDS011;46415;47.536;19.066;2023-04-30T02:52:08;10.32;;;8.27;;
60582;SDS011;46415;47.536;19.066;2023-04-30T02:55:12;11.20;;;8.10;;
60582;SDS011;46415;47.536;19.066;2023-04-30T02:58:14;10.23;;;7.95;;
60582;SDS011;46415;47.536;19.066;2023-04-30T03:01:17;9.95;;;7.22;;
60582;SDS011;46415;47.536;19.066;2023-04-30T03:04:20;9.40;;;7.87;;
60582;SDS011;46415;47.536;19.066;2023-04-30T03:07:23;8.80;;;7.62;;
60582;SDS011;46415;47.536;19.066;2023-04-30T03:10:26;9.70;;;7.05;;
60582;SDS011;46415;47.536;19.066;2023-04-30T03:13:29;7.35;;;6.50;;
60582;SDS011;46415;47.536;19.066;2023-04-30T03:16:31;10.25;;;6.85;;
60582;SDS011;46415;47.536;19.066;2023-04-30T03:19:34;9.32;;;8.32;;
60582;SDS011;46415;47.536;19.066;2023-04-30T03:22:37;9.07;;;7.75;;
60582;SDS011;46415;47.536;19.066;2023-04-30T03:25:40;8.50;;;7.68;;
60582;SDS011;46415;47.536;19.066;2023-04-30T03:28:43;8.48;;;6.53;;
60582;SDS011;46415;47.536;19.066;2023-04-30T03:31:46;11.27;;;6.70;;
60582;SDS011;46415;47.536;19.066;2023-04-30T03:34:49;10.05;;;7.72;;
60582;SDS011;46415;47.536;19.066;2023-04-30T03:37:52;9.63;;;7.85;;
60582;SDS011;46415;47.536;19.066;2023-04-30T03:40:55;8.80;;;6.30;;
60582;SDS011;46415;47.536;19.066;2023-04-30T03:43:58;10.55;;;8.30;;
60582;SDS011;46415;47.536;19.066;2023-04-30T03:47:00;13.00;;;10.45;;
60582;SDS011;46415;47.536;19.066;2023-04-30T03:50:03;12.65;;;10.07;;
60582;SDS011;46415;47.536;19.066;2023-04-30T03:53:07;14.93;;;11.07;;
60582;SDS011;46415;47.536;19.066;2023-04-30T03:56:09;13.75;;;11.27;;
60582;SDS011;46415;47.536;19.066;2023-04-30T03:59:12;15.50;;;12.40;;
60582;SDS011;46415;47.536;19.066;2023-04-30T04:02:19;16.35;;;13.60;;
60582;SDS011;46415;47.536;19.066;2023-04-30T04:05:23;15.20;;;12.85;;
60582;SDS011;46415;47.536;19.066;2023-04-30T04:08:25;19.83;;;14.20;;
60582;SDS011;46415;47.536;19.066;2023-04-30T04:11:28;16.10;;;13.52;;
60582;SDS011;46415;47.536;19.066;2023-04-30T04:14:31;18.23;;;14.00;;
60582;SDS011;46415;47.536;19.066;2023-04-30T04:17:34;18.58;;;14.48;;
60582;SDS011;46415;47.536;19.066;2023-04-30T04:20:37;17.25;;;14.00;;
60582;SDS011;46415;47.536;19.066;2023-04-30T04:23:40;18.58;;;15.27;;
60582;SDS011;46415;47.536;19.066;2023-04-30T04:26:43;19.42;;;14.95;;
60582;SDS011;46415;47.536;19.066;2023-04-30T04:29:50;18.85;;;15.38;;
60582;SDS011;46415;47.536;19.066;2023-04-30T04:32:54;18.60;;;14.63;;
60582;SDS011;46415;47.536;19.066;2023-04-30T04:35:57;17.85;;;15.15;;
60582;SDS011;46415;47.536;19.066;2023-04-30T04:39:00;19.27;;;14.75;;
60582;SDS011;46415;47.536;19.066;2023-04-30T04:42:04;19.15;;;15.95;;
60582;SDS011;46415;47.536;19.066;2023-04-30T04:45:07;18.85;;;14.50;;
60582;SDS011;46415;47.536;19.066;2023-04-30T04:48:11;17.37;;;14.07;;
60582;SDS011;46415;47.536;19.066;2023-04-30T04:51:14;17.58;;;13.35;;
60582;SDS011;46415;47.536;19.066;2023-04-30T04:54:17;20.50;;;15.63;;
60582;SDS011;46415;47.536;19.066;2023-04-30T04:57:20;17.98;;;15.57;;
60582;SDS011;46415;47.536;19.066;2023-04-30T05:00:23;18.85;;;14.48;;
60582;SDS011;46415;47.536;19.066;2023-04-30T05:03:27;20.75;;;15.40;;
60582;SDS011;46415;47.536;19.066;2023-04-30T05:06:33;18.12;;;14.52;;
60582;SDS011;46415;47.536;19.066;2023-04-30T05:09:35;17.23;;;14.55;;
60582;SDS011;46415;47.536;19.066;2023-04-30T05:12:39;15.77;;;12.60;;
60582;SDS011;46415;47.536;19.066;2023-04-30T05:15:42;17.98;;;14.43;;
60582;SDS011;46415;47.536;19.066;2023-04-30T05:18:45;18.75;;;15.13;;
60582;SDS011;46415;47.536;19.066;2023-04-30T05:21:47;16.58;;;14.02;;
60582;SDS011;46415;47.536;19.066;2023-04-30T05:24:50;19.00;;;14.82;;
60582;SDS011;46415;47.536;19.066;2023-04-30T05:27:54;18.30;;;14.82;;
60582;SDS011;46415;47.536;19.066;2023-04-30T05:30:58;18.42;;;14.98;;
60582;SDS011;46415;47.536;19.066;2023-04-30T05:34:00;17.12;;;14.02;;
60582;SDS011;46415;47.536;19.066;2023-04-30T05:37:03;16.83;;;13.60;;
60582;SDS011;46415;47.536;19.066;2023-04-30T05:40:06;15.73;;;13.70;;
60582;SDS011;46415;47.536;19.066;2023-04-30T05:43:11;14.73;;;13.02;;
60582;SDS011;46415;47.536;19.066;2023-04-30T05:46:14;16.50;;;14.48;;
60582;SDS011;46415;47.536;19.066;2023-04-30T05:49:17;16.55;;;13.73;;
60582;SDS011;46415;47.536;19.066;2023-04-30T05:52:19;14.52;;;12.98;;
60582;SDS011;46415;47.536;19.066;2023-04-30T05:55:22;15.88;;;13.13;;
60582;SDS011;46415;47.536;19.066;2023-04-30T05:58:25;14.50;;;12.45;;
60582;SDS011;46415;47.536;19.066;2023-04-30T06:01:28;16.05;;;12.73;;
60582;SDS011;46415;47.536;19.066;2023-04-30T06:04:31;13.68;;;12.07;;
60582;SDS011;46415;47.536;19.066;2023-04-30T06:07:34;14.55;;;11.63;;
60582;SDS011;46415;47.536;19.066;2023-04-30T06:10:38;12.80;;;11.48;;
60582;SDS011;46415;47.536;19.066;2023-04-30T06:13:42;12.35;;;11.05;;
60582;SDS011;46415;47.536;19.066;2023-04-30T06:16:45;11.73;;;10.52;;
60582;SDS011;46415;47.536;19.066;2023-04-30T06:19:48;11.40;;;10.18;;
60582;SDS011;46415;47.536;19.066;2023-04-30T06:22:51;11.90;;;10.70;;
60582;SDS011;46415;47.536;19.066;2023-04-30T06:25:54;12.27;;;10.10;;
60582;SDS011;46415;47.536;19.066;2023-04-30T06:28:57;12.10;;;10.43;;
60582;SDS011;46415;47.536;19.066;2023-04-30T06:32:00;11.63;;;10.43;;
60582;SDS011;46415;47.536;19.066;2023-04-30T06:35:03;11.65;;;9.75;;
60582;SDS011;46415;47.536;19.066;2023-04-30T06:38:07;10.95;;;9.88;;
60582;SDS011;46415;47.536;19.066;2023-04-30T06:41:10;10.90;;;9.20;;
60582;SDS011;46415;47.536;19.066;2023-04-30T06:44:12;10.40;;;9.32;;
60582;SDS011;46415;47.536;19.066;2023-04-30T06:47:16;10.88;;;9.13;;
60582;SDS011;46415;47.536;19.066;2023-04-30T06:50:19;11.00;;;9.73;;
60582;SDS011;46415;47.536;19.066;2023-04-30T06:53:23;10.02;;;8.55;;
60582;SDS011;46415;47.536;19.066;2023-04-30T06:56:26;10.27;;;8.40;;
60582;SDS011;46415;47.536;19.066;2023-04-30T06:59:29;9.95;;;7.72;;
60582;SDS011;46415;47.536;19.066;2023-04-30T07:02:32;9.10;;;8.13;;
60582;SDS011;46415;47.536;19.066;2023-04-30T07:05:35;8.80;;;7.90;;
60582;SDS011;46415;47.536;19.066;2023-04-30T07:08:38;7.87;;;7.12;;
60582;SDS011;46415;47.536;19.066;2023-04-30T07:11:42;8.77;;;7.87;;
60582;SDS011;46415;47.536;19.066;2023-04-30T07:14:46;8.63;;;7.70;;
60582;SDS011;46415;47.536;19.066;2023-04-30T07:17:49;8.50;;;7.68;;
60582;SDS011;46415;47.536;19.066;2023-04-30T07:20:52;7.85;;;7.15;;
60582;SDS011;46415;47.536;19.066;2023-04-30T07:23:55;8.63;;;7.72;;
60582;SDS011;46415;47.536;19.066;2023-04-30T07:26:57;7.62;;;6.93;;
60582;SDS011;46415;47.536;19.066;2023-04-30T07:30:04;7.12;;;6.43;;
60582;SDS011;46415;47.536;19.066;2023-04-30T07:33:07;7.80;;;7.00;;
60582;SDS011;46415;47.536;19.066;2023-04-30T07:36:11;6.95;;;6.25;;
60582;SDS011;46415;47.536;19.066;2023-04-30T07:39:14;7.00;;;6.30;;
60582;SDS011;46415;47.536;19.066;2023-04-30T07:42:16;6.57;;;5.90;;
60582;SDS011;46415;47.536;19.066;2023-04-30T07:45:19;7.03;;;6.32;;
60582;SDS011;46415;47.536;19.066;2023-04-30T07:48:22;6.37;;;5.78;;
60582;SDS011;46415;47.536;19.066;2023-04-30T07:51:25;6.10;;;5.50;;
60582;SDS011;46415;47.536;19.066;2023-04-30T07:54:28;6.55;;;5.95;;
60582;SDS011;46415;47.536;19.066;2023-04-30T07:57:31;6.87;;;6.28;;
60582;SDS011;46415;47.536;19.066;2023-04-30T08:00:34;6.82;;;6.12;;
60582;SDS011;46415;47.536;19.066;2023-04-30T08:03:37;6.22;;;5.62;;
60582;SDS011;46415;47.536;19.066;2023-04-30T08:06:40;6.20;;;5.15;;
60582;SDS011;46415;47.536;19.066;2023-04-30T08:09:43;6.03;;;5.32;;
60582;SDS011;46415;47.536;19.066;2023-04-30T08:12:45;6.10;;;5.50;;
60582;SDS011;46415;47.536;19.066;2023-04-30T08:15:49;6.68;;;5.50;;
60582;SDS011;46415;47.536;19.066;2023-04-30T08:18:51;5.57;;;5.07;;
60582;SDS011;46415;47.536;19.066;2023-04-30T08:21:54;4.93;;;4.53;;
60582;SDS011;46415;47.536;19.066;2023-04-30T08:24:57;5.80;;;4.82;;
60582;SDS011;46415;47.536;19.066;2023-04-30T08:28:03;4.62;;;4.22;;
60582;SDS011;46415;47.536;19.066;2023-04-30T08:31:06;4.60;;;4.20;;
60582;SDS011;46415;47.536;19.066;2023-04-30T08:34:09;4.15;;;3.75;;
60582;SDS011;46415;47.536;19.066;2023-04-30T08:37:12;4.20;;;3.58;;
60582;SDS011;46415;47.536;19.066;2023-04-30T08:40:15;3.47;;;3.17;;
60582;SDS011;46415;47.536;19.066;2023-04-30T08:43:18;3.62;;;3.33;;
60582;SDS011;46415;47.536;19.066;2023-04-30T08:46:21;3.72;;;3.42;;
60582;SDS011;46415;47.536;19.066;2023-04-30T08:49:26;2.95;;;2.70;;
60582;SDS011;46415;47.536;19.066;2023-04-30T08:52:29;2.62;;;2.42;;
60582;SDS011;46415;47.536;19.066;2023-04-30T08:55:35;2.80;;;2.10;;
60582;SDS011;46415;47.536;19.066;2023-04-30T08:58:42;2.30;;;2.10;;
60582;SDS011;46415;47.536;19.066;2023-04-30T09:01:45;2.85;;;2.65;;
60582;SDS011;46415;47.536;19.066;2023-04-30T09:04:48;2.85;;;2.65;;
60582;SDS011;46415;47.536;19.066;2023-04-30T09:07:56;3.28;;;2.97;;
60582;SDS011;46415;47.536;19.066;2023-04-30T09:11:18;3.85;;;2.70;;
60582;SDS011;46415;47.536;19.066;2023-04-30T09:14:25;2.58;;;2.37;;
60582;SDS011;46415;47.536;19.066;2023-04-30T09:17:29;2.80;;;2.60;;
60582;SDS011;46415;47.536;19.066;2023-04-30T09:20:32;2.20;;;2.10;;
60582;SDS011;46415;47.536;19.066;2023-04-30T09:23:35;2.30;;;2.20;;
60582;SDS011;46415;47.536;19.066;2023-04-30T09:26:38;2.87;;;2.67;;
60582;SDS011;46415;47.536;19.066;2023-04-30T09:29:41;2.40;;;2.20;;
60582;SDS011;46415;47.536;19.066;2023-04-30T09:32:53;2.50;;;2.30;;
60582;SDS011;46415;47.536;19.066;2023-04-30T09:35:59;2.20;;;2.10;;
60582;SDS011;46415;47.536;19.066;2023-04-30T09:39:11;2.20;;;2.10;;
60582;SDS011;46415;47.536;19.066;2023-04-30T09:42:17;2.60;;;2.40;;
60582;SDS011;46415;47.536;19.066;2023-04-30T09:45:21;2.10;;;2.00;;
60582;SDS011;46415;47.536;19.066;2023-04-30T09:48:25;2.30;;;2.20;;
60582;SDS011;46415;47.536;19.066;2023-04-30T09:51:31;2.37;;;2.20;;
60582;SDS011;46415;47.536;19.066;2023-04-30T09:54:35;2.20;;;2.10;;
60582;SDS011;46415;47.536;19.066;2023-04-30T09:57:38;2.05;;;1.95;;
60582;SDS011;46415;47.536;19.066;2023-04-30T10:00:41;2.20;;;2.10;;
60582;SDS011;46415;47.536;19.066;2023-04-30T10:03:46;2.12;;;2.03;;
60582;SDS011;46415;47.536;19.066;2023-04-30T10:06:51;2.55;;;2.42;;
60582;SDS011;46415;47.536;19.066;2023-04-30T10:09:57;2.22;;;2.08;;
60582;SDS011;46415;47.536;19.066;2023-04-30T10:13:06;2.50;;;2.30;;
60582;SDS011;46415;47.536;19.066;2023-04-30T10:16:29;2.35;;;2.25;;
60582;SDS011;46415;47.536;19.066;2023-04-30T10:19:38;2.25;;;2.15;;
60582;SDS011;46415;47.536;19.066;2023-04-30T10:22:47;2.25;;;2.08;;
60582;SDS011;46415;47.536;19.066;2023-04-30T10:25:50;2.53;;;2.33;;
60582;SDS011;46415;47.536;19.066;2023-04-30T10:28:53;2.15;;;2.05;;
60582;SDS011;46415;47.536;19.066;2023-04-30T10:32:00;2.07;;;1.97;;
60582;SDS011;46415;47.536;19.066;2023-04-30T10:35:18;2.08;;;1.87;;
60582;SDS011;46415;47.536;19.066;2023-04-30T10:38:28;1.90;;;1.80;;
60582;SDS011;46415;47.536;19.066;2023-04-30T10:41:32;2.58;;;2.37;;
60582;SDS011;46415;47.536;19.066;2023-04-30T10:44:35;2.40;;;2.30;;
60582;SDS011;46415;47.536;19.066;2023-04-30T10:47:41;2.15;;;1.95;;
60582;SDS011;46415;47.536;19.066;2023-04-30T10:50:44;2.53;;;2.10;;
60582;SDS011;46415;47.536;19.066;2023-04-30T10:53:52;2.27;;;2.07;;
60582;SDS011;46415;47.536;19.066;2023-04-30T10:57:10;2.53;;;2.40;;
60582;SDS011;46415;47.536;19.066;2023-04-30T11:00:18;2.30;;;2.10;;
60582;SDS011;46415;47.536;19.066;2023-04-30T11:03:21;2.37;;;2.22;;
60582;SDS011;46415;47.536;19.066;2023-04-30T11:06:24;2.37;;;2.05;;
60582;SDS011;46415;47.536;19.066;2023-04-30T11:09:39;3.47;;;2.25;;
60582;SDS011;46415;47.536;19.066;2023-04-30T11:12:47;2.10;;;2.00;;
60582;SDS011;46415;47.536;19.066;2023-04-30T11:15:52;2.20;;;2.08;;
60582;SDS011;46415;47.536;19.066;2023-04-30T11:19:04;2.47;;;2.30;;
60582;SDS011;46415;47.536;19.066;2023-04-30T11:22:20;2.20;;;2.10;;
60582;SDS011;46415;47.536;19.066;2023-04-30T11:25:25;2.55;;;1.90;;
60582;SDS011;46415;47.536;19.066;2023-04-30T11:28:48;2.30;;;2.10;;
60582;SDS011;46415;47.536;19.066;2023-04-30T11:31:53;2.05;;;1.95;;
60582;SDS011;46415;47.536;19.066;2023-04-30T11:34:57;2.00;;;1.90;;
60582;SDS011;46415;47.536;19.066;2023-04-30T11:38:00;2.08;;;1.98;;
60582;SDS011;46415;47.536;19.066;2023-04-30T11:41:04;2.00;;;1.90;;
60582;SDS011;46415;47.536;19.066;2023-04-30T11:44:26;2.17;;;1.98;;
60582;SDS011;46415;47.536;19.066;2023-04-30T11:47:42;1.92;;;1.83;;
60582;SDS011;46415;47.536;19.066;2023-04-30T11:50:53;1.80;;;1.70;;
60582;SDS011;46415;47.536;19.066;2023-04-30T11:53:55;2.15;;;2.05;;
60582;SDS011;46415;47.536;19.066;2023-04-30T11:56:58;2.12;;;2.03;;
60582;SDS011;46415;47.536;19.066;2023-04-30T12:03:15;1.92;;;1.83;;
60582;SDS011;46415;47.536;19.066;2023-04-30T12:06:22;1.90;;;1.80;;
60582;SDS011;46415;47.536;19.066;2023-04-30T12:09:30;1.92;;;1.83;;
60582;SDS011;46415;47.536;19.066;2023-04-30T12:12:35;2.15;;;2.03;;
60582;SDS011;46415;47.536;19.066;2023-04-30T12:15:38;1.87;;;1.77;;
60582;SDS011;46415;47.536;19.066;2023-04-30T12:18:42;2.62;;;1.90;;
60582;SDS011;46415;47.536;19.066;2023-04-30T12:21:46;1.73;;;1.60;;
60582;SDS011;46415;47.536;19.066;2023-04-30T12:24:50;2.85;;;1.92;;
60582;SDS011;46415;47.536;19.066;2023-04-30T12:27:53;1.95;;;1.80;;
60582;SDS011;46415;47.536;19.066;2023-04-30T12:30:56;1.58;;;1.48;;
60582;SDS011;46415;47.536;19.066;2023-04-30T12:34:02;1.62;;;1.52;;
60582;SDS011;46415;47.536;19.066;2023-04-30T12:37:06;3.30;;;1.70;;
60582;SDS011;46415;47.536;19.066;2023-04-30T12:40:10;1.40;;;1.40;;
60582;SDS011;46415;47.536;19.066;2023-04-30T12:43:14;1.50;;;1.40;;
60582;SDS011;46415;47.536;19.066;2023-04-30T12:46:25;1.60;;;1.50;;
60582;SDS011;46415;47.536;19.066;2023-04-30T12:49:32;1.33;;;1.33;;
60582;SDS011;46415;47.536;19.066;2023-04-30T12:52:36;1.70;;;1.60;;
60582;SDS011;46415;47.536;19.066;2023-04-30T12:55:40;1.40;;;1.30;;
60582;SDS011;46415;47.536;19.066;2023-04-30T12:58:46;1.40;;;1.30;;
60582;SDS011;46415;47.536;19.066;2023-04-30T13:01:51;2.70;;;1.42;;
60582;SDS011;46415;47.536;19.066;2023-04-30T13:04:56;1.80;;;1.70;;
60582;SDS011;46415;47.536;19.066;2023-04-30T13:08:02;1.48;;;1.37;;
60582;SDS011;46415;47.536;19.066;2023-04-30T13:11:09;1.27;;;1.23;;
60582;SDS011;46415;47.536;19.066;2023-04-30T13:14:12;1.80;;;1.70;;
60582;SDS011;46415;47.536;19.066;2023-04-30T13:17:15;1.48;;;1.33;;
60582;SDS011;46415;47.536;19.066;2023-04-30T13:20:19;1.37;;;1.27;;
60582;SDS011;46415;47.536;19.066;2023-04-30T13:23:22;2.30;;;1.52;;
60582;SDS011;46415;47.536;19.066;2023-04-30T13:26:25;1.40;;;1.40;;
60582;SDS011;46415;47.536;19.066;2023-04-30T13:29:28;1.23;;;1.23;;
60582;SDS011;46415;47.536;19.066;2023-04-30T13:32:31;1.30;;;1.30;;
60582;SDS011;46415;47.536;19.066;2023-04-30T13:35:34;1.35;;;1.25;;
60582;SDS011;46415;47.536;19.066;2023-04-30T13:38:37;1.37;;;1.37;;
60582;SDS011;46415;47.536;19.066;2023-04-30T13:41:41;1.30;;;1.30;;
60582;SDS011;46415;47.536;19.066;2023-04-30T13:44:44;1.30;;;1.23;;
60582;SDS011;46415;47.536;19.066;2023-04-30T13:47:50;1.60;;;1.50;;
60582;SDS011;46415;47.536;19.066;2023-04-30T13:50:53;1.10;;;1.10;;
60582;SDS011;46415;47.536;19.066;2023-04-30T13:53:56;1.58;;;1.48;;
60582;SDS011;46415;47.536;19.066;2023-04-30T13:56:59;1.50;;;1.40;;
60582;SDS011;46415;47.536;19.066;2023-04-30T14:00:02;1.73;;;1.30;;
60582;SDS011;46415;47.536;19.066;2023-04-30T14:03:08;1.30;;;1.25;;
60582;SDS011;46415;47.536;19.066;2023-04-30T14:06:12;1.20;;;1.20;;
60582;SDS011;46415;47.536;19.066;2023-04-30T14:09:15;1.42;;;1.33;;
60582;SDS011;46415;47.536;19.066;2023-04-30T14:12:19;1.00;;;1.00;;
60582;SDS011;46415;47.536;19.066;2023-04-30T14:15:23;1.23;;;1.23;;
60582;SDS011;46415;47.536;19.066;2023-04-30T14:18:26;1.77;;;1.30;;
60582;SDS011;46415;47.536;19.066;2023-04-30T14:21:28;1.83;;;1.10;;
60582;SDS011;46415;47.536;19.066;2023-04-30T14:24:31;1.08;;;1.05;;
60582;SDS011;46415;47.536;19.066;2023-04-30T14:27:35;1.10;;;1.10;;
60582;SDS011;46415;47.536;19.066;2023-04-30T14:30:38;1.33;;;1.33;;
60582;SDS011;46415;47.536;19.066;2023-04-30T14:33:42;1.30;;;1.20;;
60582;SDS011;46415;47.536;19.066;2023-04-30T14:36:45;1.45;;;1.35;;
60582;SDS011;46415;47.536;19.066;2023-04-30T14:39:48;1.25;;;1.15;;
60582;SDS011;46415;47.536;19.066;2023-04-30T14:42:51;1.17;;;1.17;;
60582;SDS011;46415;47.536;19.066;2023-04-30T14:45:53;1.35;;;1.27;;
60582;SDS011;46415;47.536;19.066;2023-04-30T14:48:57;1.37;;;1.30;;
60582;SDS011;46415;47.536;19.066;2023-04-30T14:51:59;1.08;;;1.08;;
60582;SDS011;46415;47.536;19.066;2023-04-30T14:55:03;2.50;;;2.30;;
60582;SDS011;46415;47.536;19.066;2023-04-30T14:58:06;2.20;;;2.00;;
60582;SDS011;46415;47.536;19.066;2023-04-30T15:01:09;2.37;;;2.17;;
60582;SDS011;46415;47.536;19.066;2023-04-30T15:04:12;2.40;;;2.20;;
60582;SDS011;46415;47.536;19.066;2023-04-30T15:07:15;2.60;;;2.25;;
60582;SDS011;46415;47.536;19.066;2023-04-30T15:10:17;2.60;;;2.40;;
60582;SDS011;46415;47.536;19.066;2023-04-30T15:13:21;2.30;;;2.15;;
60582;SDS011;46415;47.536;19.066;2023-04-30T15:16:23;2.60;;;2.10;;
60582;SDS011;46415;47.536;19.066;2023-04-30T15:19:27;2.40;;;2.20;;
60582;SDS011;46415;47.536;19.066;2023-04-30T15:22:31;3.22;;;2.37;;
60582;SDS011;46415;47.536;19.066;2023-04-30T15:25:37;2.65;;;2.25;;
60582;SDS011;46415;47.536;19.066;2023-04-30T15:28:40;2.58;;;2.37;;
60582;SDS011;46415;47.536;19.066;2023-04-30T15:31:43;2.33;;;2.15;;
60582;SDS011;46415;47.536;19.066;2023-04-30T15:34:47;2.90;;;2.53;;
60582;SDS011;46415;47.536;19.066;2023-04-30T15:37:49;2.25;;;2.05;;
60582;SDS011;46415;47.536;19.066;2023-04-30T15:40:52;3.22;;;2.65;;
60582;SDS011;46415;47.536;19.066;2023-04-30T15:43:55;2.80;;;2.60;;
60582;SDS011;46415;47.536;19.066;2023-04-30T15:46:58;2.20;;;2.10;;
60582;SDS011;46415;47.536;19.066;2023-04-30T15:50:01;2.17;;;2.03;;
60582;SDS011;46415;47.536;19.066;2023-04-30T15:53:04;2.35;;;2.12;;
60582;SDS011;46415;47.536;19.066;2023-04-30T15:56:07;1.80;;;1.70;;
60582;SDS011;46415;47.536;19.066;2023-04-30T15:59:10;2.30;;;2.20;;
60582;SDS011;46415;47.536;19.066;2023-04-30T16:02:20;2.47;;;2.30;;
60582;SDS011;46415;47.536;19.066;2023-04-30T16:05:24;2.65;;;2.45;;
60582;SDS011;46415;47.536;19.066;2023-04-30T16:08:27;2.58;;;2.37;;
60582;SDS011;46415;47.536;19.066;2023-04-30T16:11:31;2.58;;;2.37;;
60582;SDS011;46415;47.536;19.066;2023-04-30T16:14:35;2.17;;;2.08;;
60582;SDS011;46415;47.536;19.066;2023-04-30T16:17:37;2.53;;;2.33;;
60582;SDS011;46415;47.536;19.066;2023-04-30T16:20:40;2.55;;;2.35;;
60582;SDS011;46415;47.536;19.066;2023-04-30T16:23:44;2.60;;;2.40;;
60582;SDS011;46415;47.536;19.066;2023-04-30T16:26:48;2.30;;;2.10;;
60582;SDS011;46415;47.536;19.066;2023-04-30T16:29:51;2.67;;;2.47;;
60582;SDS011;46415;47.536;19.066;2023-04-30T16:32:55;3.20;;;3.00;;
60582;SDS011;46415;47.536;19.066;2023-04-30T16:36:00;2.53;;;2.33;;
60582;SDS011;46415;47.536;19.066;2023-04-30T16:39:04;3.17;;;2.85;;
60582;SDS011;46415;47.536;19.066;2023-04-30T16:42:07;3.08;;;2.87;;
60582;SDS011;46415;47.536;19.066;2023-04-30T16:45:10;3.08;;;2.78;;
60582;SDS011;46415;47.536;19.066;2023-04-30T16:48:13;3.37;;;3.08;;
60582;SDS011;46415;47.536;19.066;2023-04-30T16:51:16;3.60;;;3.30;;
60582;SDS011;46415;47.536;19.066;2023-04-30T16:54:19;3.30;;;3.00;;
60582;SDS011;46415;47.536;19.066;2023-04-30T16:57:22;3.00;;;2.70;;
60582;SDS011;46415;47.536;19.066;2023-04-30T17:00:26;3.08;;;2.87;;
60582;SDS011;46415;47.536;19.066;2023-04-30T17:03:29;3.35;;;3.08;;
60582;SDS011;46415;47.536;19.066;2023-04-30T17:06:32;2.90;;;2.70;;
60582;SDS011;46415;47.536;19.066;2023-04-30T17:09:36;3.30;;;3.00;;
60582;SDS011;46415;47.536;19.066;2023-04-30T17:12:40;3.75;;;3.45;;
60582;SDS011;46415;47.536;19.066;2023-04-30T17:15:43;4.10;;;3.70;;
60582;SDS011;46415;47.536;19.066;2023-04-30T17:18:46;4.37;;;3.97;;
60582;SDS011;46415;47.536;19.066;2023-04-30T17:21:49;4.65;;;3.87;;
60582;SDS011;46415;47.536;19.066;2023-04-30T17:24:52;4.07;;;3.67;;
60582;SDS011;46415;47.536;19.066;2023-04-30T17:27:55;4.18;;;3.78;;
60582;SDS011;46415;47.536;19.066;2023-04-30T17:30:58;3.60;;;3.30;;
60582;SDS011;46415;47.536;19.066;2023-04-30T17:34:05;3.90;;;3.60;;
60582;SDS011;46415;47.536;19.066;2023-04-30T17:37:08;4.30;;;3.90;;
60582;SDS011;46415;47.536;19.066;2023-04-30T17:40:11;3.65;;;3.35;;
60582;SDS011;46415;47.536;19.066;2023-04-30T17:43:15;3.78;;;3.35;;
60582;SDS011;46415;47.536;19.066;2023-04-30T17:46:17;3.75;;;3.45;;
60582;SDS011;46415;47.536;19.066;2023-04-30T17:49:21;4.35;;;3.90;;
60582;SDS011;46415;47.536;19.066;2023-04-30T17:52:24;3.78;;;3.47;;
60582;SDS011;46415;47.536;19.066;2023-04-30T17:55:27;5.20;;;3.78;;
60582;SDS011;46415;47.536;19.066;2023-04-30T17:58:30;3.60;;;3.30;;
60582;SDS011;46415;47.536;19.066;2023-04-30T18:01:34;3.80;;;3.40;;
60582;SDS011;46415;47.536;19.066;2023-04-30T18:04:37;3.83;;;3.53;;
60582;SDS011;46415;47.536;19.066;2023-04-30T18:07:40;4.30;;;3.90;;
60582;SDS011;46415;47.536;19.066;2023-04-30T18:10:43;4.22;;;3.85;;
60582;SDS011;46415;47.536;19.066;2023-04-30T18:13:46;4.53;;;4.12;;
60582;SDS011;46415;47.536;19.066;2023-04-30T18:16:48;3.80;;;3.50;;
60582;SDS011;46415;47.536;19.066;2023-04-30T18:19:52;3.75;;;3.45;;
60582;SDS011;46415;47.536;19.066;2023-04-30T18:22:56;3.70;;;3.40;;
60582;SDS011;46415;47.536;19.066;2023-04-30T18:25:59;4.10;;;3.80;;
60582;SDS011;46415;47.536;19.066;2023-04-30T18:29:04;4.35;;;3.95;;
60582;SDS011;46415;47.536;19.066;2023-04-30T18:32:07;4.68;;;4.28;;
60582;SDS011;46415;47.536;19.066;2023-04-30T18:35:11;4.57;;;4.18;;